createdAt,value
2019-02-07T00:01:45.742Z,11.33
2019-02-07T00:04:15.231Z,11.73
2019-02-07T00:06:44.368Z,11.17
2019-02-07T00:09:14.987Z,11.47
2019-02-07T00:11:44.306Z,10.80
2019-02-07T00:14:14.152Z,11.87
2019-02-07T00:16:44.214Z,12.20
2019-02-07T00:19:14.976Z,11.57
2019-02-07T00:21:44.532Z,12.03
2019-02-07T00:24:15.448Z,11.90
2019-02-07T00:26:46.600Z,12.87
2019-02-07T00:29:15.970Z,12.17
2019-02-07T00:31:45.544Z,12.30
2019-02-07T00:34:16.438Z,12.67
2019-02-07T00:36:46.436Z,13.10
2019-02-07T00:39:16.496Z,12.63
2019-02-07T00:41:46.693Z,13.50
2019-02-07T00:44:16.502Z,12.43
2019-02-07T00:46:46.028Z,11.60
2019-02-07T00:49:15.790Z,12.60
2019-02-07T00:51:45.335Z,13.07
2019-02-07T00:54:15.490Z,12.20
2019-02-07T00:56:45.133Z,11.80
2019-02-07T00:59:16.072Z,11.50
2019-02-07T01:01:46.403Z,11.67
2019-02-07T01:04:16.456Z,11.30
2019-02-07T01:06:45.913Z,10.70
2019-02-07T01:09:15.214Z,12.00
2019-02-07T01:11:45.079Z,10.90
2019-02-07T01:14:15.108Z,11.30
2019-02-07T01:16:44.662Z,11.47
2019-02-07T01:19:15.326Z,11.73
2019-02-07T01:21:45.256Z,11.17
2019-02-07T01:24:15.316Z,10.73
2019-02-07T01:26:45.462Z,11.23
2019-02-07T01:29:15.820Z,12.07
2019-02-07T01:31:48.173Z,11.30
2019-02-07T01:34:20.270Z,11.33
2019-02-07T01:36:49.807Z,11.40
2019-02-07T01:39:19.727Z,11.40
2019-02-07T01:41:52.065Z,11.20
2019-02-07T01:44:21.881Z,11.03
2019-02-07T01:46:51.233Z,11.20
2019-02-07T01:49:21.701Z,11.47
2019-02-07T01:51:50.968Z,10.67
2019-02-07T01:54:20.807Z,11.23
2019-02-07T01:56:51.069Z,10.77
2019-02-07T01:59:20.451Z,10.67
2019-02-07T02:01:50.656Z,10.50
2019-02-07T02:04:20.878Z,11.13
2019-02-07T02:06:50.788Z,10.77
2019-02-07T02:09:20.202Z,10.90
2019-02-07T02:11:49.597Z,12.10
2019-02-07T02:14:19.686Z,10.83
2019-02-07T02:16:50.060Z,11.57
2019-02-07T02:19:19.900Z,10.73
2019-02-07T02:21:49.425Z,10.43
2019-02-07T02:24:19.273Z,10.77
2019-02-07T02:26:49.342Z,11.83
2019-02-07T02:29:18.649Z,11.43
2019-02-07T02:31:48.183Z,11.17
2019-02-07T02:34:17.797Z,11.80
2019-02-07T02:36:48.058Z,11.10
2019-02-07T02:39:17.653Z,11.07
2019-02-07T02:41:47.931Z,11.27
2019-02-07T02:44:18.341Z,10.93
2019-02-07T02:46:47.855Z,10.60
2019-02-07T02:49:17.199Z,10.80
2019-02-07T02:51:47.294Z,10.77
2019-02-07T02:54:34.855Z,12.00
2019-02-07T02:57:04.819Z,11.17
2019-02-07T02:59:34.972Z,11.80
2019-02-07T03:02:21.397Z,10.60
2019-02-07T03:04:59.797Z,10.30
2019-02-07T03:07:54.302Z,9.53
2019-02-07T03:10:34.297Z,9.57
2019-02-07T03:13:22.505Z,10.90
2019-02-07T03:16:02.468Z,10.80
2019-02-07T03:19:00.066Z,10.97
2019-02-07T03:21:52.612Z,9.87
2019-02-07T03:24:43.568Z,10.77
2019-02-07T03:27:35.321Z,10.23
2019-02-07T03:30:24.298Z,10.00
2019-02-07T03:33:11.649Z,9.60
2019-02-07T03:36:11.961Z,8.90
2019-02-07T03:38:59.264Z,10.43
2019-02-07T03:41:41.457Z,9.20
2019-02-07T03:44:43.830Z,10.00
2019-02-07T03:47:38.493Z,10.07
2019-02-07T03:50:33.427Z,9.27
2019-02-07T03:53:20.831Z,8.87
2019-02-07T03:56:10.408Z,9.30
2019-02-07T03:59:07.730Z,9.27
2019-02-07T04:02:14.894Z,8.47
2019-02-07T04:05:03.268Z,8.20
2019-02-07T04:07:55.695Z,8.03
2019-02-07T04:10:39.679Z,7.97
2019-02-07T04:13:26.410Z,8.17
2019-02-07T04:16:21.130Z,7.40
2019-02-07T04:19:12.329Z,7.80
2019-02-07T04:21:59.224Z,8.23
2019-02-07T04:24:46.271Z,7.97
2019-02-07T04:27:44.419Z,7.10
2019-02-07T04:30:33.487Z,6.30
2019-02-07T04:33:23.028Z,5.53
2019-02-07T04:36:30.005Z,5.30
2019-02-07T04:39:18.390Z,5.37
2019-02-07T04:42:16.022Z,4.53
2019-02-07T04:45:05.870Z,4.47
2019-02-07T04:47:53.547Z,3.30
2019-02-07T04:50:59.990Z,2.20
2019-02-07T04:53:44.171Z,1.67
2019-02-07T04:56:31.833Z,1.77
2019-02-07T04:59:14.471Z,2.43
2019-02-07T05:02:05.063Z,2.17
2019-02-07T05:04:46.178Z,2.63
2019-02-07T05:07:26.041Z,3.50
2019-02-07T05:10:24.815Z,3.80
2019-02-07T05:13:15.954Z,2.27
2019-02-07T05:16:10.875Z,2.90
2019-02-07T05:18:53.591Z,4.13
2019-02-07T05:21:52.703Z,4.33
2019-02-07T05:24:41.947Z,4.47
2019-02-07T05:27:28.291Z,4.37
2019-02-07T05:30:26.254Z,4.00
2019-02-07T05:33:06.521Z,4.30
2019-02-07T05:35:52.478Z,4.90
2019-02-07T05:38:40.182Z,4.80
2019-02-07T05:41:27.695Z,4.57
2019-02-07T05:44:14.730Z,4.43
2019-02-07T05:47:02.583Z,5.37
2019-02-07T05:49:51.689Z,5.03
2019-02-07T05:52:38.854Z,4.43
2019-02-07T05:55:40.185Z,5.27
2019-02-07T05:58:37.855Z,5.47
2019-02-07T06:01:36.246Z,5.57
2019-02-07T06:04:24.844Z,4.87
2019-02-07T06:07:22.075Z,6.33
2019-02-07T06:10:10.795Z,4.93
2019-02-07T06:13:05.877Z,5.20
2019-02-07T06:15:52.916Z,5.43
2019-02-07T06:18:36.799Z,5.13
2019-02-07T06:21:20.419Z,5.53
2019-02-07T06:24:07.293Z,4.73
2019-02-07T06:26:48.301Z,5.70
2019-02-07T06:29:34.343Z,5.03
2019-02-07T06:32:22.217Z,4.83
2019-02-07T06:35:11.059Z,5.43
2019-02-07T06:37:50.527Z,5.47
2019-02-07T06:40:39.488Z,5.47
2019-02-07T06:43:26.219Z,6.33
2019-02-07T06:46:05.749Z,6.10
2019-02-07T06:48:56.888Z,5.83
2019-02-07T06:51:45.274Z,5.27
2019-02-07T06:54:51.403Z,5.40
2019-02-07T06:57:38.624Z,5.40
2019-02-07T07:00:26.159Z,5.27
2019-02-07T07:03:06.267Z,5.13
2019-02-07T07:05:46.822Z,6.10
2019-02-07T07:08:36.085Z,6.53
2019-02-07T07:11:24.105Z,5.97
2019-02-07T07:14:27.622Z,5.30
2019-02-07T07:17:34.303Z,5.97
2019-02-07T07:20:25.832Z,5.37
2019-02-07T07:23:32.113Z,6.07
2019-02-07T07:26:18.833Z,6.13
2019-02-07T07:29:22.267Z,6.03
2019-02-07T07:32:28.745Z,5.43
2019-02-07T07:35:15.766Z,6.40
2019-02-07T07:37:57.288Z,6.77
2019-02-07T07:40:53.441Z,6.93
2019-02-07T07:43:32.655Z,7.20
2019-02-07T07:46:30.181Z,7.20
2019-02-07T07:49:21.303Z,6.13
2019-02-07T07:52:09.652Z,5.73
2019-02-07T07:54:53.425Z,6.43
2019-02-07T07:57:40.220Z,6.03
2019-02-07T08:00:28.509Z,5.23
2019-02-07T08:03:28.986Z,4.93
2019-02-07T08:06:11.519Z,6.77
2019-02-07T08:08:57.969Z,5.80
2019-02-07T08:11:51.991Z,5.37
2019-02-07T08:14:42.980Z,5.50
2019-02-07T08:17:29.938Z,6.30
2019-02-07T08:20:20.960Z,6.23
2019-02-07T08:23:01.343Z,6.63
2019-02-07T08:25:49.337Z,5.33
2019-02-07T08:28:36.002Z,5.23
2019-02-07T08:31:30.846Z,5.37
2019-02-07T08:34:18.878Z,4.93
2019-02-07T08:37:02.703Z,5.50
2019-02-07T08:39:48.595Z,4.10
2019-02-07T08:42:39.691Z,5.03
2019-02-07T08:45:29.369Z,4.60
2019-02-07T08:48:36.049Z,5.03
2019-02-07T08:51:36.574Z,5.10
2019-02-07T08:54:25.285Z,4.43
2019-02-07T08:57:14.203Z,4.00
2019-02-07T09:00:07.994Z,3.97
2019-02-07T09:02:51.754Z,3.40
2019-02-07T09:05:48.694Z,3.83
2019-02-07T09:08:42.844Z,3.97
2019-02-07T09:11:40.016Z,3.87
2019-02-07T09:14:37.031Z,3.83
2019-02-07T09:17:36.771Z,3.30
2019-02-07T09:20:15.779Z,4.07
2019-02-07T09:23:19.173Z,3.70
2019-02-07T09:26:07.523Z,4.93
2019-02-07T09:29:11.237Z,4.13
2019-02-07T09:31:59.405Z,3.77
2019-02-07T09:34:54.008Z,4.37
2019-02-07T09:37:48.547Z,3.87
2019-02-07T09:40:38.045Z,4.03
2019-02-07T09:43:16.795Z,3.60
2019-02-07T09:46:17.593Z,3.50
2019-02-07T09:49:11.645Z,3.40
2019-02-07T09:52:00.111Z,3.85
2019-02-07T09:54:48.410Z,4.05
2019-02-07T09:57:39.181Z,3.47
2019-02-07T10:00:35.219Z,3.63
2019-02-07T10:03:29.349Z,4.07
2019-02-07T10:06:26.604Z,6.90
2019-02-07T10:09:26.997Z,4.20
2019-02-07T10:12:27.353Z,3.57
2019-02-07T10:15:15.790Z,4.43
2019-02-07T10:18:19.091Z,4.00
2019-02-07T10:21:04.341Z,3.97
2019-02-07T10:23:41.729Z,3.97
2019-02-07T10:26:47.829Z,3.90
2019-02-07T10:29:34.429Z,3.60
2019-02-07T10:32:31.712Z,5.53
2019-02-07T10:35:09.959Z,4.80
2019-02-07T10:38:13.351Z,3.90
2019-02-07T10:41:08.255Z,4.10
2019-02-07T10:43:55.079Z,3.37
2019-02-07T10:46:41.949Z,3.40
2019-02-07T10:49:20.581Z,5.47
2019-02-07T10:52:15.076Z,2.90
2019-02-07T10:54:54.517Z,2.73
2019-02-07T10:57:42.986Z,3.07
2019-02-07T11:00:41.422Z,2.80
2019-02-07T11:03:32.668Z,3.27
2019-02-07T11:06:20.293Z,3.30
2019-02-07T11:09:17.342Z,2.83
2019-02-07T11:12:04.324Z,2.80
2019-02-07T11:14:55.291Z,2.67
2019-02-07T11:17:38.284Z,2.87
2019-02-07T11:20:39.801Z,3.00
2019-02-07T11:23:39.859Z,2.73
2019-02-07T11:26:24.565Z,2.97
2019-02-07T11:29:16.168Z,2.60
2019-02-07T11:32:03.304Z,2.60
2019-02-07T11:34:54.338Z,2.77
2019-02-07T11:37:45.356Z,2.77
2019-02-07T11:40:32.255Z,2.43
2019-02-07T11:43:10.624Z,2.60
2019-02-07T11:46:07.583Z,2.60
2019-02-07T11:48:50.791Z,2.40
2019-02-07T11:51:31.990Z,2.37
2019-02-07T11:54:26.051Z,2.23
2019-02-07T11:57:12.741Z,1.97
2019-02-07T11:59:59.164Z,2.50
2019-02-07T12:02:54.704Z,2.50
2019-02-07T12:05:42.682Z,2.00
2019-02-07T12:08:32.857Z,2.30
2019-02-07T12:11:20.546Z,2.60
2019-02-07T12:14:15.926Z,2.03
2019-02-07T12:17:07.166Z,2.43
2019-02-07T12:19:54.097Z,3.00
2019-02-07T12:22:40.741Z,2.10
2019-02-07T12:25:25.671Z,2.10
2019-02-07T12:28:12.630Z,2.20
2019-02-07T12:31:03.744Z,2.17
2019-02-07T12:33:41.784Z,2.07
2019-02-07T12:36:18.666Z,2.20
2019-02-07T12:39:12.719Z,2.03
2019-02-07T12:42:01.179Z,2.13
2019-02-07T12:44:47.064Z,2.30
2019-02-07T12:47:38.381Z,2.10
2019-02-07T12:50:31.186Z,2.00
2019-02-07T12:53:11.171Z,2.07
2019-02-07T12:56:05.381Z,2.20
2019-02-07T12:58:52.802Z,2.50
2019-02-07T13:01:48.317Z,2.63
2019-02-07T13:04:44.950Z,2.23
2019-02-07T13:07:36.112Z,2.33
2019-02-07T13:10:24.588Z,2.50
2019-02-07T13:13:13.476Z,2.27
2019-02-07T13:16:11.019Z,2.53
2019-02-07T13:18:58.388Z,1.93
2019-02-07T13:21:47.197Z,2.27
2019-02-07T13:24:35.727Z,2.20
2019-02-07T13:27:23.442Z,1.90
2019-02-07T13:30:21.153Z,2.50
2019-02-07T13:33:09.707Z,2.00
2019-02-07T13:35:57.048Z,2.17
2019-02-07T13:38:44.035Z,2.27
2019-02-07T13:41:31.048Z,2.57
2019-02-07T13:44:16.251Z,2.17
2019-02-07T13:47:10.524Z,2.60
2019-02-07T13:49:59.907Z,2.50
2019-02-07T13:52:47.650Z,2.20
2019-02-07T13:55:37.424Z,2.53
2019-02-07T13:58:24.516Z,2.80
2019-02-07T14:01:13.059Z,3.20
2019-02-07T14:04:12.069Z,1.90
2019-02-07T14:07:10.535Z,3.13
2019-02-07T14:10:04.891Z,2.37
2019-02-07T14:13:09.393Z,2.10
2019-02-07T14:16:13.179Z,2.43
2019-02-07T14:19:05.083Z,2.13
2019-02-07T14:21:52.616Z,2.33
2019-02-07T14:24:51.318Z,2.60
2019-02-07T14:27:42.517Z,2.40
2019-02-07T14:30:24.962Z,2.43
2019-02-07T14:33:28.550Z,2.77
2019-02-07T14:36:12.087Z,2.50
2019-02-07T14:39:10.230Z,2.17
2019-02-07T14:41:50.703Z,2.63
2019-02-07T14:44:33.728Z,2.17
2019-02-07T14:47:03.438Z,2.47
2019-02-07T14:49:33.105Z,1.77
2019-02-07T14:52:03.190Z,2.37
2019-02-07T14:54:32.834Z,2.80
2019-02-07T14:57:02.961Z,2.20
2019-02-07T14:59:32.204Z,2.43
2019-02-07T15:02:02.970Z,2.30
2019-02-07T15:04:33.098Z,2.00
2019-02-07T15:07:02.776Z,2.27
2019-02-07T15:09:31.875Z,2.20
2019-02-07T15:12:01.255Z,3.13
2019-02-07T15:14:30.511Z,2.87
2019-02-07T15:16:59.822Z,3.80
2019-02-07T15:19:30.638Z,2.10
2019-02-07T15:22:00.596Z,2.40
2019-02-07T15:24:30.063Z,2.80
2019-02-07T15:26:59.918Z,3.50
2019-02-07T15:29:30.215Z,4.20
2019-02-07T15:32:00.239Z,4.27
2019-02-07T15:34:29.585Z,3.80
2019-02-07T15:36:58.654Z,2.97
2019-02-07T15:39:28.335Z,3.47
2019-02-07T15:41:58.492Z,2.57
2019-02-07T15:44:28.305Z,2.70
2019-02-07T15:46:58.740Z,2.63
2019-02-07T15:49:28.850Z,1.97
2019-02-07T15:51:59.622Z,2.43
2019-02-07T15:54:29.854Z,2.10
2019-02-07T15:56:59.562Z,2.83
2019-02-07T15:59:37.871Z,2.70
2019-02-07T16:02:14.226Z,2.27
2019-02-07T16:04:45.948Z,2.10
2019-02-07T16:07:18.106Z,2.33
2019-02-07T16:09:47.412Z,1.90
2019-02-07T16:12:18.942Z,2.30
2019-02-07T16:14:48.282Z,2.20
2019-02-07T16:17:17.892Z,2.57
2019-02-07T16:19:47.291Z,1.93
2019-02-07T16:22:17.378Z,2.70
2019-02-07T16:24:47.297Z,2.53
2019-02-07T16:27:16.853Z,2.27
2019-02-07T16:29:47.243Z,2.73
2019-02-07T16:32:18.100Z,2.77
2019-02-07T16:34:47.760Z,2.73
2019-02-07T16:37:18.942Z,2.43
2019-02-07T16:39:49.780Z,2.60
2019-02-07T16:42:20.091Z,2.43
2019-02-07T16:44:49.977Z,2.43
2019-02-07T16:47:19.952Z,2.77
2019-02-07T16:49:50.492Z,2.23
2019-02-07T16:52:20.287Z,3.03
2019-02-07T16:54:50.795Z,2.53
2019-02-07T16:57:21.058Z,2.40
2019-02-07T16:59:50.798Z,2.17
2019-02-07T17:02:20.505Z,2.87
2019-02-07T17:04:50.753Z,2.30
2019-02-07T17:07:19.971Z,2.10
2019-02-07T17:09:49.741Z,2.40
2019-02-07T17:12:19.800Z,3.23
2019-02-07T17:14:49.659Z,2.47
2019-02-07T17:17:19.217Z,2.63
2019-02-07T17:19:48.695Z,2.67
2019-02-07T17:22:17.867Z,2.60
2019-02-07T17:24:48.090Z,2.33
2019-02-07T17:27:18.113Z,2.53
2019-02-07T17:29:48.959Z,2.43
2019-02-07T17:32:19.245Z,3.07
2019-02-07T17:34:50.648Z,2.57
2019-02-07T17:37:20.458Z,2.73
2019-02-07T17:39:51.706Z,2.40
2019-02-07T17:42:22.540Z,2.53
2019-02-07T17:44:51.917Z,2.43
2019-02-07T17:47:21.772Z,2.67
2019-02-07T17:49:53.950Z,2.90
2019-02-07T17:52:25.967Z,3.10
2019-02-07T17:54:55.649Z,3.40
2019-02-07T17:57:25.414Z,2.50
2019-02-07T17:59:54.954Z,2.47
2019-02-07T18:02:25.300Z,2.53
2019-02-07T18:04:55.164Z,2.90
2019-02-07T18:07:24.656Z,2.47
2019-02-07T18:09:54.637Z,2.87
2019-02-07T18:12:24.052Z,2.67
2019-02-07T18:14:53.964Z,2.50
2019-02-07T18:17:23.381Z,5.33
2019-02-07T18:19:52.839Z,3.93
2019-02-07T18:22:22.186Z,2.70
2019-02-07T18:24:51.464Z,2.47
2019-02-07T18:27:21.200Z,2.67
2019-02-07T18:29:50.316Z,2.63
2019-02-07T18:32:19.840Z,2.20
2019-02-07T18:34:49.253Z,3.40
2019-02-07T18:37:18.890Z,3.00
2019-02-07T18:39:48.046Z,3.03
2019-02-07T18:42:17.082Z,2.60
2019-02-07T18:44:46.562Z,2.37
2019-02-07T18:47:16.134Z,3.30
2019-02-07T18:49:45.214Z,2.50
2019-02-07T18:52:14.639Z,2.40
2019-02-07T18:54:44.096Z,2.63
2019-02-07T18:57:13.571Z,2.23
2019-02-07T18:59:43.090Z,2.60
2019-02-07T19:02:12.135Z,4.00
2019-02-07T19:04:41.126Z,5.53
2019-02-07T19:07:10.304Z,11.93
2019-02-07T19:09:39.811Z,3.03
2019-02-07T19:12:08.879Z,3.03
2019-02-07T19:14:38.076Z,2.70
2019-02-07T19:17:07.514Z,2.67
2019-02-07T19:19:36.541Z,3.10
2019-02-07T19:22:05.948Z,2.40
2019-02-07T19:24:35.236Z,2.60
2019-02-07T19:27:04.672Z,2.80
2019-02-07T19:29:34.518Z,2.47
2019-02-07T19:32:03.570Z,2.43
2019-02-07T19:34:32.688Z,2.63
2019-02-07T19:37:01.816Z,2.40
2019-02-07T19:39:31.154Z,2.60
2019-02-07T19:42:00.195Z,2.60
2019-02-07T19:44:29.807Z,2.63
2019-02-07T19:46:58.943Z,2.43
2019-02-07T19:49:28.635Z,2.23
2019-02-07T19:52:07.727Z,2.10
2019-02-07T19:54:28.529Z,2.17
2019-02-07T19:56:57.895Z,1.90
2019-02-07T19:59:27.221Z,2.93
2019-02-07T20:01:56.429Z,2.37
2019-02-07T20:04:25.730Z,1.90
2019-02-07T20:06:54.743Z,2.13
2019-02-07T20:09:24.304Z,2.43
2019-02-07T20:11:53.608Z,2.20
2019-02-07T20:14:22.911Z,2.17
2019-02-07T20:16:52.006Z,2.40
2019-02-07T20:19:21.346Z,2.50
2019-02-07T20:21:50.692Z,2.43
2019-02-07T20:24:19.726Z,2.47
2019-02-07T20:26:49.496Z,2.17
2019-02-07T20:29:18.513Z,2.00
2019-02-07T20:31:47.576Z,2.67
2019-02-07T20:34:17.057Z,2.40
2019-02-07T20:36:46.370Z,2.37
2019-02-07T20:39:15.952Z,2.60
2019-02-07T20:41:45.329Z,3.00
2019-02-07T20:44:14.401Z,2.93
2019-02-07T20:46:43.535Z,2.53
2019-02-07T20:49:12.673Z,2.53
2019-02-07T20:51:41.721Z,2.50
2019-02-07T20:54:13.890Z,2.17
2019-02-07T20:56:43.239Z,2.40
2019-02-07T20:59:12.654Z,2.77
2019-02-07T21:01:42.062Z,2.37
2019-02-07T21:04:11.130Z,2.30
2019-02-07T21:06:40.141Z,2.13
2019-02-07T21:09:10.588Z,2.53
2019-02-07T21:11:39.753Z,2.47
2019-02-07T21:14:08.807Z,2.60
2019-02-07T21:16:39.006Z,2.23
2019-02-07T21:19:08.417Z,2.87
2019-02-07T21:21:38.449Z,2.13
2019-02-07T21:24:08.793Z,2.20
2019-02-07T21:26:38.519Z,2.40
2019-02-07T21:29:07.725Z,2.47
2019-02-07T21:31:37.536Z,2.20
2019-02-07T21:34:07.075Z,2.60
2019-02-07T21:36:36.479Z,2.50
2019-02-07T21:39:10.106Z,2.30
2019-02-07T21:41:39.149Z,2.07
2019-02-07T21:44:08.538Z,2.67
2019-02-07T21:46:38.272Z,2.20
2019-02-07T21:49:07.723Z,2.90
2019-02-07T21:51:36.982Z,2.20
2019-02-07T21:54:06.286Z,2.50
2019-02-07T21:56:35.385Z,1.83
2019-02-07T21:59:04.963Z,2.40
2019-02-07T22:01:34.669Z,2.20
2019-02-07T22:04:04.075Z,2.83
2019-02-07T22:06:34.195Z,2.40
2019-02-07T22:09:04.983Z,2.67
2019-02-07T22:11:34.257Z,2.40
2019-02-07T22:14:03.757Z,2.40
2019-02-07T22:16:33.544Z,2.50
2019-02-07T22:19:03.552Z,2.20
2019-02-07T22:21:33.171Z,1.93
2019-02-07T22:24:02.750Z,2.20
2019-02-07T22:26:32.471Z,2.37
2019-02-07T22:29:01.769Z,2.37
2019-02-07T22:31:31.455Z,3.43
2019-02-07T22:34:00.989Z,3.07
2019-02-07T22:36:31.672Z,2.53
2019-02-07T22:39:01.330Z,2.23
2019-02-07T22:41:30.747Z,2.20
2019-02-07T22:43:59.832Z,2.33
2019-02-07T22:46:28.858Z,2.53
2019-02-07T22:48:58.405Z,2.07
2019-02-07T22:51:27.947Z,2.57
2019-02-07T22:53:57.056Z,2.50
2019-02-07T22:56:29.991Z,2.33
2019-02-07T22:58:59.035Z,2.70
2019-02-07T23:01:47.632Z,2.80
2019-02-07T23:04:17.599Z,2.73
2019-02-07T23:06:46.667Z,2.30
2019-02-07T23:09:18.722Z,2.40
2019-02-07T23:11:48.281Z,2.50
2019-02-07T23:14:17.903Z,2.30
2019-02-07T23:16:47.030Z,2.73
2019-02-07T23:19:16.387Z,3.17
2019-02-07T23:21:45.449Z,3.27
2019-02-07T23:24:14.624Z,3.20
2019-02-07T23:26:43.695Z,2.47
2019-02-07T23:29:14.101Z,2.60
2019-02-07T23:31:44.547Z,2.67
2019-02-07T23:34:14.193Z,3.30
2019-02-07T23:36:43.399Z,3.03
2019-02-07T23:39:13.041Z,3.10
2019-02-07T23:41:45.405Z,2.60
2019-02-07T23:44:15.219Z,2.83
2019-02-07T23:46:44.262Z,2.47
2019-02-07T23:49:13.809Z,2.60
2019-02-07T23:51:43.001Z,2.73
2019-02-07T23:54:12.537Z,2.40
2019-02-07T23:56:42.769Z,2.53
2019-02-07T23:59:11.720Z,2.40
